Bango, Nevada Weather observations

Data are for 10 minute period ending at time listed.
 Day   Time    Ave.   Ave.  Ave.  Vector   Max.   Stn.    Total    Solar   Ave.  
  of    of     Air    Rel.  Wind   Wind    Wind   Baro.  Precip.   Rad.    Soil  
Year   Day     Temp.  Hum.  Speed  Dir.    Gust   Pres.                    Temp. 
2015   (PST)    F      %     mph   deg.    mph     mb.     in.     W/m2     F    
--------------------------------------------------------------------------------- 
 185    8:30   80.2    41   10.9   261     16.7   874.0    0.00     301    31.2  
 185    8:40   80.6    39   13.8   269     17.6   873.5    0.00     292    31.2  
 185    8:50   81.8    36   10.3   287     15.8   873.7    0.00     287    31.2  
 185    9:00   81.5    36    9.5   332     14.1   874.0    0.00     289    31.2  
 185    9:10   81.2    38   13.1   304     16.7   873.9    0.00     338    31.1  
 185    9:20   81.2    38   12.1   322     16.7   873.8    0.00     361    31.1  
 185    9:30   82.1    36    8.8   322     13.2   873.9    0.00     362    31.1  
 185    9:40   82.7    36   10.2   306     15.8   873.8    0.00     325    31.1  
 185    9:50   82.8    35    8.4   272     12.3   873.8    0.00     306    31.1  
 185   10:00   83.1    34    9.5   216     20.3   874.0    0.00     340    31.0  
 185   10:10   82.4    36   17.5   186     21.2   874.0    0.00     424    31.0  
 185   10:20   82.9    34   16.5   189     20.3   874.0    0.00     642    31.0  
 185   10:30   83.5    34   13.5   200     18.5   874.0    0.00     867    31.0  
 185   10:40   84.1    32   15.5   204     19.4   873.9    0.00     425    31.1  
 185   10:50   83.9    32   16.3   202     23.0   873.9    0.00     314    31.1  
 185   11:00   83.3    33   16.7   194     20.3   874.0    0.00     352    31.1  
 185   11:10   84.2    32   14.7   201     20.3   874.0    0.00     729    31.1  
 185   11:20   84.4    33   14.8   200     17.6   874.1    0.00     536    31.1  
 185   11:30   84.2    32   16.8   205     20.3   874.0    0.00     314    31.1  
 185   11:40   83.9    30   16.1   211     20.3   874.0    0.00     258    31.2  
 185   11:50   84.1    30   16.5   205     21.2   874.0    0.00     269    31.2  
 185   12:00   83.9    32   16.7   220     21.2   874.1    0.00     233    31.2  
 185   12:10   83.5    32   15.0   232     19.4   874.2    0.00     205    31.3  
 185   12:20   83.7    31   11.2   227     15.8   874.4    0.00     164    31.3  
 185   12:30   83.9    31   11.1   218     17.6   874.5    0.00     210    31.4  
 185   12:40   84.2    31   13.6   195     19.4   874.6    0.00     160    31.4  
 185   12:50   83.2    32   14.0   187     19.4   874.8    0.00     111    31.4  
 185   13:00   83.1    32   11.4   183     14.9   875.0    0.00      85    31.5  
 185   13:10   82.7    33   10.1   157     13.2   875.3    0.00      75    31.5  
 185   13:20   80.2    40   19.7   143     38.2   875.7    0.00      58    31.6  
 185   13:30   70.2    73   24.6   115     35.5   876.2    0.00      49    31.6  
 185   13:40   68.5    78   22.2   117     31.9   876.1    0.00      51    31.6  
 185   13:50   68.7    78   19.5   130     28.4   876.3    0.00      39    31.7  
 185   14:00   67.9    80   17.4   130     23.9   876.6    0.00      32    31.7  
 185   14:10   67.0    82   16.4   144     22.1   876.7    0.00      29    31.7  
 185   14:20   66.6    82   16.9   128     23.0   876.6    0.01      30    31.7  
 185   14:30   66.1    84   15.0   130     20.3   876.5    0.01      37    31.7  
 185   14:40   66.1    85   10.6   151     14.1   876.5    0.00      47    31.7  
 185   14:50   66.7    83    7.7   166     11.4   876.5    0.00      63    31.7  
 185   15:00   67.1    82    4.0   184      6.0   876.4    0.00      70    31.7  
 185   15:10   67.4    83    3.7   248      6.0   876.3    0.01      61    31.7  
 185   15:20   67.6    82    6.9   235      8.7   876.1    0.00      52    31.6  
 185   15:30   67.9    82   12.0   222     14.1   876.0    0.01      43    31.6  
 185   15:40   67.4    83   13.5   222     16.7   876.0    0.00      30    31.6  
 185   15:50   66.9    84   13.6   222     17.6   876.0    0.00      25    31.5  
 185   16:00   66.8    85   14.5   242     21.2   875.8    0.01      26    31.5  
 185   16:10   66.5    84   15.7   240     20.3   875.8    0.00      25    31.4  
 185   16:20   66.2    85   11.7   248     15.8   876.0    0.00      20    31.4  
 185   16:30   66.2    84   11.0   255     16.7   876.1    0.01      18    31.3  
 185   16:40   66.0    84   10.8   251     14.1   876.0    0.01      27    31.2  
 185   16:50   65.8    85    9.4   254     13.2   875.8    0.00      45    31.2  
 185   17:00   66.2    77   10.3   280     14.9   875.6    0.00      53    31.1  
 185   17:10   66.4    73    9.7   295     13.2   875.4    0.01      50    31.0  
 185   17:20   66.3    75    8.7   351     12.3   875.3    0.00      49    31.0  
 185   17:30   65.3    82    6.8    45      9.6   875.3    0.00      58    30.9  
 185   17:40   64.9    84    8.0    18     11.4   875.3    0.00      61    30.8  
 185   17:50   64.7    85    6.5   355     10.5   875.2    0.00      59    30.7  
 185   18:00   64.9    87    9.2    10     14.1   875.1    0.00      60    30.6  
 185   18:10   65.0    87    9.8     5     14.1   875.2    0.00      42    30.5  
 185   18:20   65.0    87    9.7     5     14.1   875.1    0.01      35    30.5  
 185   18:30   64.8    86   10.9   169     15.8   875.9    0.00      26    30.4  
 185   18:40   65.9    74    4.7   121     11.4   876.0    0.00      24    30.3  
 185   18:50   65.4    80    3.3   325      6.0   876.0    0.01      16    30.2  
 185   19:00   65.0    84    4.9    21      6.9   876.0    0.00       8    30.1  
 185   19:10   64.3    85    5.3   354      6.9   876.1    0.01       5    30.1  
 185   19:20   63.9    85    3.4   329      5.1   876.1    0.00       3    30.0  
 185   19:30   64.0    87    2.5   265      4.2   876.0    0.01       1    29.9  
 185   19:40   64.2    87    4.1    28      6.0   876.0    0.00       0    29.8  
 185   19:50   64.4    85    2.4    53      4.2   876.0    0.00       0    29.8  
 185   20:00   64.4    89    4.0   279      6.9   876.3    0.00       0    29.7  
 185   20:10   64.3    88    4.2   331      6.0   876.4    0.00       0    29.6  
 185   20:20   64.1    86    5.3   359      6.9   876.4    0.00       0    29.5  
 185   20:30   63.6    88    2.8    71      5.1   876.5    0.00       0    29.5  
 185   20:40   63.6    87    2.2    99      4.2   876.5    0.00       0    29.4  
 185   20:50   63.7    86    1.6   264      3.3   876.5    0.00       0    29.3  
 185   21:00   63.7    86    2.3   219      4.2   876.6    0.00       0    29.2  
 185   21:10   63.4    90    4.1   182      6.9   876.7    0.00       0    29.2  
 185   21:20   63.5    86    6.4   215      7.8   876.6    0.00       0    29.1  
 185   21:30   63.4    86    5.4   223      6.9   876.7    0.00       0    29.0  
 185   21:40   63.4    86    4.7   223      6.0   876.5    0.00       0    29.0  
 185   21:50   63.0    86    4.0   178      6.0   876.3    0.00       0    28.9  
 185   22:00   62.5    91    5.9   177      7.8   876.1    0.00       0    28.8  
 185   22:10   62.4    87    7.1   186      8.7   876.0    0.00       0    28.8  
 185   22:20   62.3    89    5.8   207      8.7   876.0    0.00       0    28.7  
 185   22:30   61.8    90    5.6   212      7.8   875.8    0.00       0    28.6  
 185   22:40   61.6    92    5.9   189      7.8   875.8    0.00       0    28.5  
 185   22:50   61.6    92    8.1   195     10.5   875.5    0.00       0    28.5  
 185   23:00   61.9    90   10.1   208     11.4   875.4    0.00       0    28.4  
 185   23:10   62.2    88    9.9   207     13.2   875.4    0.00       0    28.3  
 185   23:20   62.0    88   10.7   220     12.3   875.4    0.00       0    28.2  
 185   23:30   62.1    88   11.3   213     14.1   875.4    0.00       0    28.2  
 185   23:40   62.2    88    9.8   211     12.3   875.4    0.00       0    28.1  
 185   23:50   62.1    89   10.9   209     13.2   875.3    0.00       0    28.0  
 186    0:00   61.8    90   10.3   202     11.4   875.2    0.00       0    27.9  
 186    0:10   61.9    91   11.0   196     13.2   875.0    0.00       0    27.9  
 186    0:20   61.5    92    8.9   193     10.5   875.0    0.00       0    27.8  
 186    0:30   61.5    91   10.2   206     13.2   875.0    0.00       0    27.7  
 186    0:40   62.1    87   11.4   209     14.1   875.1    0.00       0    27.6  
 186    0:50   61.9    87    9.9   212     12.3   875.2    0.00       0    27.6  
 186    1:00   61.2    89    8.3   212      9.6   875.3    0.00       0    27.5  
 186    1:10   60.8    90    8.4   210     10.5   875.3    0.00       0    27.4  
 186    1:20   61.0    90   10.1   199     13.2   875.2    0.00       0    27.4  
 186    1:30   61.2    89    9.8   202     12.3   875.1    0.00       0    27.3  
 186    1:40   61.0    90    9.8   205     11.4   875.1    0.00       0    27.2  
 186    1:50   60.9    89    9.9   205     11.4   875.1    0.00       0    27.1  
 186    2:00   61.0    89    9.0   207     11.4   875.2    0.00       0    27.0  
 186    2:10   61.0    89    8.2   256     11.4   875.3    0.00       0    27.0  
 186    2:20   61.5    87    8.6   239     11.4   875.4    0.00       0    26.9  
 186    2:30   61.2    87    7.0   228      9.6   875.2    0.00       0    26.8  
 186    2:40   60.5    89    8.7   212     10.5   875.1    0.00       0    26.8  
 186    2:50   60.3    89    8.6   214     10.5   875.1    0.00       0    26.7  
 186    3:00   60.0    89    9.6   217     12.3   875.0    0.00       0    26.6  
 186    3:10   60.0    89   11.2   219     13.2   874.9    0.00       0    26.5  
 186    3:20   59.9    88   10.5   209     12.3   875.0    0.00       0    26.5  
 186    3:30   60.2    87   10.0   219     12.3   875.0    0.00       0    26.4  
 186    3:40   60.0    86    7.4   251      9.6   875.2    0.00       0    26.3  
 186    3:50   60.2    85    9.5   258     12.3   875.2    0.00       0    26.2  
 186    4:00   60.6    83    9.1   240     12.3   875.2    0.00       0    26.2  
 186    4:10   60.1    84    8.8   218     12.3   875.2    0.00       0    26.1  
 186    4:20   59.9    85    9.2   238     12.3   875.4    0.00       0    26.0  
 186    4:30   59.6    86    8.6   227     11.4   875.4    0.00       1    26.0  
 186    4:40   59.5    86    9.3   235     12.3   875.5    0.00       4    25.9  
 186    4:50   59.5    86    8.6   236     11.4   875.6    0.00      11    25.9  
 186    5:00   59.4    86    7.4   222      9.6   875.7    0.00      26    25.8  
 186    5:10   59.8    86    9.5   215     12.3   875.7    0.00      49    25.7  
 186    5:20   60.2    86   10.2   216     12.3   875.7    0.00      78    25.6  
 186    5:30   60.7    85   10.3   210     12.3   875.8    0.00     110    25.6  
 186    5:40   61.3    83   11.9   206     14.9   875.8    0.00     138    25.5  
 186    5:50   62.0    81   11.4   212     14.1   875.9    0.00     166    25.5  
 186    6:00   62.5    80   12.2   205     14.9   876.0    0.00     196    25.4  
 186    6:10   63.2    79   10.7   217     13.2   876.0    0.00     228    25.3  
 186    6:20   64.4    77    9.5   216     11.4   876.1    0.00     260    25.3  
 186    6:30  999.0   999  999.0   999    999.0   999.0   999.00     999    999.0  
 186    6:40  999.0   999  999.0   999    999.0   999.0   999.00     999    999.0  
 186    6:50  999.0   999  999.0   999    999.0   999.0   999.00     999    999.0  
 186    7:00  999.0   999  999.0   999    999.0   999.0   999.00     999    999.0  
 186    7:10  999.0   999  999.0   999    999.0   999.0   999.00     999    999.0  
 186    7:20  999.0   999  999.0   999    999.0   999.0   999.00     999    999.0  
 186    7:30   68.3    67   12.5   208     15.8   876.3    0.00     492    24.9  
 186    7:40   68.6    64   12.7   209     15.8   876.5    0.00     523    24.8  
 186    7:50   69.6    64   11.5   204     14.9   876.5    0.00     555    24.8  
 186    8:00   69.8    63   12.1   196     14.9   876.6    0.00     588    24.8  
 186    8:10   70.1    63   11.2   193     14.1   876.7    0.00     619    24.7  
 186    8:20   70.6    63   10.2   191     13.2   876.8    0.00     649    24.7  

Return to Garden Spring, Nevada graphs page.


Western Regional Climate Center,wrcc@dri.edu